Time;durP1;ratioP1;P1;durP2;ratioP2;P2;SDS_P1;SDS_P2;PMS_P1;PMS_P2;Temp;Humidity;BMP_temperature;BMP_pressure;BME280_temperature;BME280_humidity;BME280_pressure;Samples;Min_cycle;Max_cycle;Signal;HPM_P1;HPM_P2
2021/07/21 00:05:04;;;;;;;0.30;0.30;;;;;;;;;;10351453;28;20041;-26
2021/07/21 00:10:08;;;;;;;1.13;0.30;;;;;;;;;;10350164;28;20128;-27
2021/07/21 00:15:11;;;;;;;0.30;0.30;;;;;;;;;;10355180;28;20554;-27
2021/07/21 00:20:16;;;;;;;0.30;0.30;;;;;;;;;;10354030;28;20985;-26
2021/07/21 00:25:19;;;;;;;0.20;0.20;;;;;;;;;;10358893;28;20045;-26
2021/07/21 00:30:22;;;;;;;0.32;0.30;;;;;;;;;;10357134;28;20053;-26
2021/07/21 00:35:26;;;;;;;0.50;0.40;;;;;;;;;;10358862;28;20045;-26
2021/07/21 00:40:30;;;;;;;0.30;0.30;;;;;;;;;;10346271;28;20047;-26
2021/07/21 00:45:33;;;;;;;0.30;0.30;;;;;;;;;;10351162;28;20137;-26
2021/07/21 00:50:38;;;;;;;0.70;0.45;;;;;;;;;;10351985;28;20061;-27
2021/07/21 00:55:40;;;;;;;0.30;0.30;;;;;;;;;;10352353;28;20594;-26
2021/07/21 01:00:43;;;;;;;0.47;0.30;;;;;;;;;;10352980;28;20053;-26
2021/07/21 01:05:48;;;;;;;0.98;0.30;;;;;;;;;;10353254;28;20042;-26
2021/07/21 01:10:53;;;;;;;0.30;0.30;;;;;;;;;;10350662;28;20699;-26
2021/07/21 01:16:02;;;;;;;0.30;0.30;;;;;;;;;;10350581;28;20100;-26
2021/07/21 01:21:25;;;;;;;0.40;0.40;;;;;;;;;;10353887;28;20050;-27
2021/07/21 01:26:34;;;;;;;0.40;0.40;;;;;;;;;;10346368;28;20554;-26
2021/07/21 01:31:41;;;;;;;0.30;0.30;;;;;;;;;;10350177;28;20468;-26
2021/07/21 01:36:49;;;;;;;0.40;0.30;;;;;;;;;;10368270;28;20056;-27
2021/07/21 01:41:54;;;;;;;0.40;0.40;;;;;;;;;;10355340;28;20447;-26
2021/07/21 01:47:00;;;;;;;0.32;0.32;;;;;;;;;;10352935;28;20045;-27
2021/07/21 01:52:08;;;;;;;0.80;0.40;;;;;;;;;;10346330;28;20054;-26
2021/07/21 01:57:12;;;;;;;0.30;0.30;;;;;;;;;;10351275;28;20165;-28
2021/07/21 02:02:27;;;;;;;0.40;0.40;;;;;;;;;;10348665;28;20155;-26
2021/07/21 02:07:42;;;;;;;0.40;0.40;;;;;;;;;;10352578;28;20046;-26
2021/07/21 02:12:45;;;;;;;0.65;0.40;;;;;;;;;;10351902;28;20991;-28
2021/07/21 02:17:50;;;;;;;0.40;0.30;;;;;;;;;;10354272;28;20064;-28
2021/07/21 02:22:53;;;;;;;1.63;0.50;;;;;;;;;;10350326;28;20065;-26
2021/07/21 02:28:04;;;;;;;0.75;0.40;;;;;;;;;;10344891;28;20115;-26
2021/07/21 02:33:18;;;;;;;0.63;0.43;;;;;;;;;;10349524;28;20054;-27
2021/07/21 02:38:22;;;;;;;0.30;0.30;;;;;;;;;;10352324;28;20050;-27
2021/07/21 02:43:29;;;;;;;0.85;0.35;;;;;;;;;;10349980;28;20077;-26
2021/07/21 02:48:42;;;;;;;0.60;0.35;;;;;;;;;;10350961;28;20088;-27
2021/07/21 02:53:49;;;;;;;0.30;0.30;;;;;;;;;;10347224;28;20127;-26
2021/07/21 02:59:13;;;;;;;0.30;0.30;;;;;;;;;;10347310;28;20052;-26
2021/07/21 03:04:21;;;;;;;0.30;0.30;;;;;;;;;;10350846;28;20740;-26
2021/07/21 03:09:34;;;;;;;0.40;0.40;;;;;;;;;;10352883;28;20049;-26
2021/07/21 03:14:41;;;;;;;0.38;0.38;;;;;;;;;;10343489;28;20056;-26
2021/07/21 03:19:48;;;;;;;0.57;0.50;;;;;;;;;;10340816;28;20034;-25
2021/07/21 03:24:56;;;;;;;0.40;0.40;;;;;;;;;;10351326;28;20045;-26
2021/07/21 03:30:19;;;;;;;0.55;0.50;;;;;;;;;;10368896;28;20194;-25
2021/07/21 03:35:34;;;;;;;0.35;0.35;;;;;;;;;;10365619;28;20156;-24
2021/07/21 03:40:39;;;;;;;0.50;0.50;;;;;;;;;;10351981;28;21510;-25
2021/07/21 03:45:57;;;;;;;0.30;0.30;;;;;;;;;;10358692;28;20143;-24
2021/07/21 03:51:04;;;;;;;0.40;0.40;;;;;;;;;;10343704;28;20104;-25
2021/07/21 03:56:20;;;;;;;0.50;0.40;;;;;;;;;;10339652;28;20077;-26
2021/07/21 04:01:31;;;;;;;0.40;0.40;;;;;;;;;;10349807;28;20076;-25
2021/07/21 04:06:36;;;;;;;0.40;0.40;;;;;;;;;;10360015;28;20047;-25
2021/07/21 04:11:54;;;;;;;0.40;0.40;;;;;;;;;;10346599;28;20795;-25
2021/07/21 04:17:06;;;;;;;0.40;0.40;;;;;;;;;;10350013;28;20137;-25
2021/07/21 04:22:13;;;;;;;0.50;0.50;;;;;;;;;;10351748;28;20050;-24
2021/07/21 04:27:23;;;;;;;0.63;0.40;;;;;;;;;;10355623;28;20512;-25
2021/07/21 04:32:45;;;;;;;0.55;0.55;;;;;;;;;;10352771;28;20140;-27
2021/07/21 04:37:54;;;;;;;0.45;0.45;;;;;;;;;;10349562;28;20483;-25
2021/07/21 04:43:03;;;;;;;0.40;0.40;;;;;;;;;;10349442;28;20046;-25
2021/07/21 04:48:08;;;;;;;0.60;0.60;;;;;;;;;;10351347;28;20058;-24
2021/07/21 04:53:28;;;;;;;0.40;0.40;;;;;;;;;;10351450;28;20128;-25
2021/07/21 04:58:32;;;;;;;0.68;0.68;;;;;;;;;;10349032;28;20050;-25
2021/07/21 05:03:42;;;;;;;0.60;0.60;;;;;;;;;;10354352;28;20565;-25
2021/07/21 05:08:52;;;;;;;0.55;0.50;;;;;;;;;;10353646;28;20537;-25
2021/07/21 05:13:57;;;;;;;0.60;0.52;;;;;;;;;;10350538;28;20054;-25
2021/07/21 05:19:06;;;;;;;1.38;0.52;;;;;;;;;;10350146;28;20046;-25
2021/07/21 05:24:10;;;;;;;0.50;0.50;;;;;;;;;;10352189;28;20512;-25
2021/07/21 05:29:13;;;;;;;1.00;0.50;;;;;;;;;;10353424;28;20054;-25
2021/07/21 05:34:24;;;;;;;1.33;0.60;;;;;;;;;;10349725;28;20046;-25
2021/07/21 05:39:40;;;;;;;0.75;0.60;;;;;;;;;;10351670;28;20054;-25
2021/07/21 05:44:43;;;;;;;0.60;0.60;;;;;;;;;;10349893;28;20543;-24
2021/07/21 05:49:48;;;;;;;0.50;0.50;;;;;;;;;;10345742;28;20050;-24
2021/07/21 05:55:02;;;;;;;0.65;0.50;;;;;;;;;;10337841;28;20054;-25
2021/07/21 06:00:06;;;;;;;0.50;0.50;;;;;;;;;;10344738;28;20053;-24
2021/07/21 06:05:16;;;;;;;0.50;0.50;;;;;;;;;;10355472;28;20050;-26
2021/07/21 06:10:49;;;;;;;0.52;0.50;;;;;;;;;;10358970;28;20064;-25
2021/07/21 06:15:53;;;;;;;0.57;0.50;;;;;;;;;;10348144;28;20073;-25
2021/07/21 06:20:56;;;;;;;0.65;0.50;;;;;;;;;;10350212;28;20499;-25
2021/07/21 06:26:00;;;;;;;0.60;0.50;;;;;;;;;;10347835;28;20080;-25
2021/07/21 06:31:10;;;;;;;0.50;0.50;;;;;;;;;;10349660;28;20343;-26
2021/07/21 06:36:14;;;;;;;0.45;0.40;;;;;;;;;;10347582;28;20077;-25
2021/07/21 06:41:19;;;;;;;1.38;0.40;;;;;;;;;;10351540;28;20052;-25
2021/07/21 06:46:23;;;;;;;0.40;0.40;;;;;;;;;;10358614;28;20058;-25
2021/07/21 06:51:40;;;;;;;0.43;0.40;;;;;;;;;;10357714;28;20046;-26
2021/07/21 06:56:44;;;;;;;0.52;0.50;;;;;;;;;;10352672;28;20048;-25
2021/07/21 07:02:06;;;;;;;0.60;0.50;;;;;;;;;;10350822;28;20046;-26
2021/07/21 07:07:29;;;;;;;0.57;0.43;;;;;;;;;;10355819;28;20746;-25
2021/07/21 07:12:51;;;;;;;1.92;0.50;;;;;;;;;;10360870;28;20055;-26
2021/07/21 07:17:54;;;;;;;0.50;0.50;;;;;;;;;;10354483;28;20042;-27
2021/07/21 07:22:57;;;;;;;0.60;0.60;;;;;;;;;;10360025;28;20030;-26
2021/07/21 07:28:01;;;;;;;0.40;0.40;;;;;;;;;;10356732;28;20050;-27
2021/07/21 07:33:04;;;;;;;0.40;0.40;;;;;;;;;;10354071;28;20718;-26
2021/07/21 07:38:07;;;;;;;0.50;0.38;;;;;;;;;;10355607;28;20041;-26
2021/07/21 07:43:11;;;;;;;0.38;0.38;;;;;;;;;;10358596;28;20046;-27
2021/07/21 07:48:14;;;;;;;0.40;0.40;;;;;;;;;;10357762;28;20030;-25
2021/07/21 07:53:17;;;;;;;0.70;0.38;;;;;;;;;;10358530;28;20038;-26
2021/07/21 07:58:22;;;;;;;0.65;0.40;;;;;;;;;;10352392;28;20049;-25
2021/07/21 08:03:25;;;;;;;1.63;0.43;;;;;;;;;;10352373;28;20042;-27
2021/07/21 08:08:28;;;;;;;0.40;0.40;;;;;;;;;;10353253;28;20058;-27
2021/07/21 08:13:33;;;;;;;0.68;0.40;;;;;;;;;;10354466;28;20057;-27
2021/07/21 08:18:36;;;;;;;0.57;0.45;;;;;;;;;;10348445;28;20052;-27
2021/07/21 08:23:39;;;;;;;1.08;0.30;;;;;;;;;;10354169;28;20058;-26
2021/07/21 08:28:43;;;;;;;0.30;0.30;;;;;;;;;;10354669;28;20060;-27
2021/07/21 08:33:45;;;;;;;0.40;0.40;;;;;;;;;;10356435;28;20064;-27
2021/07/21 08:38:51;;;;;;;0.30;0.30;;;;;;;;;;10347324;28;20046;-27
2021/07/21 08:43:55;;;;;;;0.82;0.40;;;;;;;;;;10352982;28;20046;-27
2021/07/21 08:48:58;;;;;;;0.30;0.30;;;;;;;;;;10350070;28;20046;-27
2021/07/21 08:54:01;;;;;;;0.20;0.20;;;;;;;;;;10354832;28;20057;-27
2021/07/21 08:59:06;;;;;;;1.15;0.40;;;;;;;;;;10353701;28;20395;-25
2021/07/21 09:04:09;;;;;;;0.40;0.40;;;;;;;;;;10354680;28;20049;-25
2021/07/21 09:09:11;;;;;;;0.35;0.32;;;;;;;;;;10354231;28;20042;-25
2021/07/21 09:14:15;;;;;;;0.50;0.50;;;;;;;;;;10351627;28;20049;-26
2021/07/21 09:19:31;;;;;;;0.40;0.40;;;;;;;;;;10342057;28;20632;-25
2021/07/21 09:24:33;;;;;;;0.40;0.40;;;;;;;;;;10343362;28;20487;-26
2021/07/21 09:29:39;;;;;;;0.40;0.40;;;;;;;;;;10352725;28;20050;-24
2021/07/21 09:34:42;;;;;;;2.10;0.50;;;;;;;;;;10354344;28;20050;-25
2021/07/21 09:39:45;;;;;;;0.82;0.50;;;;;;;;;;10351020;28;20050;-25
2021/07/21 09:44:49;;;;;;;0.70;0.50;;;;;;;;;;10347011;28;20045;-24
2021/07/21 09:50:10;;;;;;;0.50;0.50;;;;;;;;;;10345729;28;20066;-26
2021/07/21 09:55:15;;;;;;;0.40;0.40;;;;;;;;;;10347211;28;20038;-25
2021/07/21 10:00:21;;;;;;;0.40;0.40;;;;;;;;;;10350427;28;20096;-25
2021/07/21 10:05:24;;;;;;;0.30;0.30;;;;;;;;;;10352801;28;20052;-26
2021/07/21 10:10:26;;;;;;;0.30;0.30;;;;;;;;;;10353795;28;20044;-27
2021/07/21 10:15:30;;;;;;;0.30;0.30;;;;;;;;;;10356854;28;20065;-26
2021/07/21 10:20:33;;;;;;;0.20;0.20;;;;;;;;;;10358972;28;20033;-26
2021/07/21 10:25:36;;;;;;;0.40;0.40;;;;;;;;;;10359510;28;20053;-24
2021/07/21 10:30:41;;;;;;;0.20;0.20;;;;;;;;;;10359830;28;20042;-25
2021/07/21 10:35:45;;;;;;;0.40;0.40;;;;;;;;;;10359277;28;20065;-25
2021/07/21 10:40:47;;;;;;;0.38;0.32;;;;;;;;;;10360811;28;20052;-27
2021/07/21 10:45:51;;;;;;;0.30;0.20;;;;;;;;;;10364238;28;20057;-25
2021/07/21 10:51:02;;;;;;;0.30;0.30;;;;;;;;;;10360009;28;20050;-25
2021/07/21 11:01:47;;;;;;;0.32;0.30;;;;;;;;;;10356189;28;20485;-25
2021/07/21 11:06:52;;;;;;;0.50;0.40;;;;;;;;;;10356594;28;20152;-25
2021/07/21 11:11:57;;;;;;;0.20;0.20;;;;;;;;;;10359667;28;20048;-25
2021/07/21 11:17:11;;;;;;;0.22;0.22;;;;;;;;;;10359668;28;20857;-26
2021/07/21 11:22:24;;;;;;;0.40;0.40;;;;;;;;;;10360258;28;20061;-26
2021/07/21 11:27:40;;;;;;;0.30;0.30;;;;;;;;;;10359960;28;20049;-26
2021/07/21 11:32:44;;;;;;;0.30;0.30;;;;;;;;;;10347679;28;20792;-25
2021/07/21 11:37:46;;;;;;;0.30;0.22;;;;;;;;;;10343709;28;20058;-25
2021/07/21 11:42:52;;;;;;;0.20;0.20;;;;;;;;;;10354317;28;20882;-25
2021/07/21 11:47:59;;;;;;;0.30;0.30;;;;;;;;;;10358399;28;20057;-26
2021/07/21 11:53:03;;;;;;;0.40;0.40;;;;;;;;;;10358500;28;20052;-25
2021/07/21 11:58:10;;;;;;;0.30;0.30;;;;;;;;;;10357789;28;20060;-25
2021/07/21 12:03:14;;;;;;;0.25;0.22;;;;;;;;;;10354395;28;20050;-26
2021/07/21 12:08:18;;;;;;;0.20;0.20;;;;;;;;;;10355097;28;20046;-25
2021/07/21 12:13:23;;;;;;;0.90;0.20;;;;;;;;;;10356938;28;20038;-25
2021/07/21 12:18:28;;;;;;;0.20;0.20;;;;;;;;;;10352846;28;20046;-25
2021/07/21 12:23:31;;;;;;;0.35;0.20;;;;;;;;;;10357100;28;20076;-26
2021/07/21 12:28:33;;;;;;;0.20;0.20;;;;;;;;;;10353684;28;20070;-25
2021/07/21 12:33:37;;;;;;;0.20;0.20;;;;;;;;;;10355453;28;20042;-26
2021/07/21 12:38:41;;;;;;;0.20;0.20;;;;;;;;;;10355569;28;20061;-28
2021/07/21 12:43:43;;;;;;;0.20;0.20;;;;;;;;;;10353876;28;20054;-26
2021/07/21 12:48:48;;;;;;;0.20;0.20;;;;;;;;;;10350307;28;20060;-25
2021/07/21 12:53:50;;;;;;;0.20;0.20;;;;;;;;;;10351086;28;20042;-25
2021/07/21 12:59:07;;;;;;;0.20;0.20;;;;;;;;;;10357022;28;20125;-26
2021/07/21 13:04:14;;;;;;;0.50;0.30;;;;;;;;;;10354704;28;20399;-26
2021/07/21 13:09:17;;;;;;;0.20;0.20;;;;;;;;;;10355754;28;20052;-25
2021/07/21 13:14:20;;;;;;;0.20;0.20;;;;;;;;;;10351805;28;20048;-26
2021/07/21 13:19:31;;;;;;;0.57;0.30;;;;;;;;;;10344041;28;20050;-26
2021/07/21 13:24:39;;;;;;;0.20;0.20;;;;;;;;;;10350870;28;20049;-25
2021/07/21 13:29:43;;;;;;;0.22;0.22;;;;;;;;;;10355592;28;20134;-26
2021/07/21 13:35:00;;;;;;;0.38;0.20;;;;;;;;;;10354704;28;20041;-26
2021/07/21 13:40:05;;;;;;;0.20;0.20;;;;;;;;;;10348893;28;20038;-26
2021/07/21 13:45:08;;;;;;;0.20;0.20;;;;;;;;;;10346080;28;20034;-26
2021/07/21 13:50:15;;;;;;;0.20;0.20;;;;;;;;;;10342047;28;20467;-26
2021/07/21 13:55:17;;;;;;;0.10;0.10;;;;;;;;;;10346269;28;20096;-26
2021/07/21 14:00:21;;;;;;;0.20;0.20;;;;;;;;;;10341576;28;20046;-25
2021/07/21 14:05:25;;;;;;;0.13;0.13;;;;;;;;;;10345473;28;20062;-26
2021/07/21 14:10:27;;;;;;;0.20;0.20;;;;;;;;;;10352427;28;20034;-26
2021/07/21 14:15:30;;;;;;;0.10;0.10;;;;;;;;;;10352416;28;20046;-26
2021/07/21 14:20:34;;;;;;;0.10;0.10;;;;;;;;;;10352713;28;20403;-26
2021/07/21 14:25:37;;;;;;;0.10;0.10;;;;;;;;;;10347854;28;20866;-26
2021/07/21 14:30:42;;;;;;;0.10;0.10;;;;;;;;;;10346992;28;20057;-26
2021/07/21 14:35:46;;;;;;;0.20;0.13;;;;;;;;;;10351969;28;20384;-26
2021/07/21 14:40:48;;;;;;;0.15;0.13;;;;;;;;;;10348979;28;20069;-26
2021/07/21 14:45:51;;;;;;;0.22;0.10;;;;;;;;;;10347543;28;20049;-26
2021/07/21 14:50:55;;;;;;;0.13;0.13;;;;;;;;;;10353086;28;20120;-25
2021/07/21 14:55:59;;;;;;;0.10;0.10;;;;;;;;;;10347937;28;20832;-26
2021/07/21 15:01:01;;;;;;;0.10;0.10;;;;;;;;;;10345561;28;20058;-26
2021/07/21 15:06:06;;;;;;;0.22;0.10;;;;;;;;;;10353020;28;20046;-26
2021/07/21 15:11:10;;;;;;;0.17;0.17;;;;;;;;;;10360963;28;20046;-26
2021/07/21 15:16:12;;;;;;;0.40;0.20;;;;;;;;;;10372994;28;20041;-26
2021/07/21 15:21:17;;;;;;;0.30;0.28;;;;;;;;;;10354698;28;20044;-25
2021/07/21 15:26:19;;;;;;;0.30;0.17;;;;;;;;;;10356999;28;20046;-27
2021/07/21 15:31:22;;;;;;;0.50;0.20;;;;;;;;;;10354046;28;20042;-26
2021/07/21 15:36:26;;;;;;;0.20;0.20;;;;;;;;;;10349524;28;20125;-25
2021/07/21 15:41:29;;;;;;;0.77;0.20;;;;;;;;;;10350627;28;20045;-26
2021/07/21 15:46:32;;;;;;;0.77;0.20;;;;;;;;;;10358721;28;20495;-25
2021/07/21 15:51:37;;;;;;;0.25;0.20;;;;;;;;;;10357099;28;20037;-26
2021/07/21 15:56:40;;;;;;;0.70;0.20;;;;;;;;;;10357083;28;20924;-26
2021/07/21 16:01:44;;;;;;;0.13;0.10;;;;;;;;;;10357505;28;20034;-25
2021/07/21 16:06:49;;;;;;;0.40;0.20;;;;;;;;;;10355847;28;20085;-25
2021/07/21 16:11:52;;;;;;;0.50;0.20;;;;;;;;;;10347525;28;20115;-26
2021/07/21 16:16:55;;;;;;;0.63;0.20;;;;;;;;;;10354386;28;20767;-26
2021/07/21 16:21:59;;;;;;;0.85;0.20;;;;;;;;;;10356222;28;20038;-25
2021/07/21 16:27:04;;;;;;;0.10;0.10;;;;;;;;;;10353017;28;20053;-26
2021/07/21 16:32:07;;;;;;;0.30;0.22;;;;;;;;;;10356410;28;20061;-25
2021/07/21 16:37:11;;;;;;;0.20;0.20;;;;;;;;;;10352652;28;20050;-25
2021/07/21 16:42:14;;;;;;;0.47;0.20;;;;;;;;;;10347158;28;20049;-26
2021/07/21 16:47:19;;;;;;;0.20;0.20;;;;;;;;;;10347917;28;20057;-27
2021/07/21 16:52:23;;;;;;;0.35;0.20;;;;;;;;;;10351880;28;20628;-26
2021/07/21 16:57:25;;;;;;;0.20;0.17;;;;;;;;;;10371005;28;20061;-26
2021/07/21 17:02:28;;;;;;;0.10;0.10;;;;;;;;;;10372516;28;20490;-26
2021/07/21 17:07:32;;;;;;;0.20;0.20;;;;;;;;;;10373452;28;20474;-26
2021/07/21 17:12:35;;;;;;;0.10;0.10;;;;;;;;;;10359608;28;20052;-28
2021/07/21 17:17:38;;;;;;;0.20;0.20;;;;;;;;;;10358156;28;20053;-25
2021/07/21 17:22:43;;;;;;;0.15;0.15;;;;;;;;;;10356100;28;20488;-27
2021/07/21 17:27:45;;;;;;;0.20;0.20;;;;;;;;;;10361371;28;20467;-26
2021/07/21 17:32:48;;;;;;;0.20;0.20;;;;;;;;;;10355320;28;20050;-26
2021/07/21 17:37:53;;;;;;;0.22;0.20;;;;;;;;;;10348017;28;20050;-25
2021/07/21 17:42:55;;;;;;;1.30;0.20;;;;;;;;;;10366204;28;20045;-26
2021/07/21 17:48:00;;;;;;;0.30;0.28;;;;;;;;;;10368059;28;20104;-26
2021/07/21 17:53:04;;;;;;;0.20;0.20;;;;;;;;;;10353572;28;20041;-26
2021/07/21 17:58:07;;;;;;;0.20;0.20;;;;;;;;;;10358888;28;20045;-26
2021/07/21 18:03:11;;;;;;;0.52;0.30;;;;;;;;;;10360547;28;20526;-27
2021/07/21 18:08:15;;;;;;;0.20;0.20;;;;;;;;;;10372760;28;20060;-26
2021/07/21 18:13:18;;;;;;;0.20;0.20;;;;;;;;;;10368908;28;20046;-26
2021/07/21 18:18:21;;;;;;;0.32;0.20;;;;;;;;;;10370570;28;20056;-26
2021/07/21 18:23:43;;;;;;;0.75;0.30;;;;;;;;;;10360643;28;20049;-26
2021/07/21 18:28:46;;;;;;;0.20;0.20;;;;;;;;;;10364648;28;20038;-25
2021/07/21 18:33:49;;;;;;;0.45;0.32;;;;;;;;;;10364935;28;20053;-26
2021/07/21 18:38:53;;;;;;;0.95;0.30;;;;;;;;;;10375767;28;20033;-26
2021/07/21 18:43:57;;;;;;;0.30;0.30;;;;;;;;;;10377176;28;20077;-26
2021/07/21 18:48:59;;;;;;;2.45;0.50;;;;;;;;;;10379444;28;20049;-26
2021/07/21 18:54:03;;;;;;;0.90;0.30;;;;;;;;;;10381689;28;20049;-26
2021/07/21 18:59:06;;;;;;;0.82;0.20;;;;;;;;;;10375549;28;20046;-26
2021/07/21 19:04:09;;;;;;;0.40;0.40;;;;;;;;;;10358149;28;20054;-26
2021/07/21 19:09:13;;;;;;;0.77;0.40;;;;;;;;;;10360529;28;20046;-27
2021/07/21 19:14:16;;;;;;;0.57;0.22;;;;;;;;;;10372388;28;20041;-27
2021/07/21 19:19:19;;;;;;;0.20;0.20;;;;;;;;;;10375150;28;20065;-26
2021/07/21 19:24:23;;;;;;;0.40;0.40;;;;;;;;;;10376528;28;20041;-26
2021/07/21 19:29:25;;;;;;;0.30;0.30;;;;;;;;;;10380081;28;20068;-26
2021/07/21 19:34:28;;;;;;;1.20;0.40;;;;;;;;;;10369940;28;20149;-26
2021/07/21 19:39:32;;;;;;;0.35;0.30;;;;;;;;;;10373857;28;20057;-26
2021/07/21 19:44:35;;;;;;;0.32;0.30;;;;;;;;;;10362668;28;20639;-27
2021/07/21 19:49:38;;;;;;;0.30;0.30;;;;;;;;;;10364690;28;20050;-26
2021/07/21 19:54:42;;;;;;;0.32;0.30;;;;;;;;;;10357355;28;20038;-26
2021/07/21 19:59:46;;;;;;;0.30;0.30;;;;;;;;;;10347688;28;20038;-26
2021/07/21 20:04:50;;;;;;;0.20;0.20;;;;;;;;;;10341408;28;20120;-27
2021/07/21 20:09:54;;;;;;;0.40;0.40;;;;;;;;;;10350222;28;20050;-26
2021/07/21 20:14:56;;;;;;;0.55;0.40;;;;;;;;;;10338725;28;20045;-27
2021/07/21 20:20:00;;;;;;;0.40;0.35;;;;;;;;;;10344509;28;20065;-26
2021/07/21 20:25:05;;;;;;;0.57;0.40;;;;;;;;;;10353190;28;20038;-27
2021/07/21 20:30:08;;;;;;;0.98;0.40;;;;;;;;;;10358131;28;20064;-27
2021/07/21 20:35:11;;;;;;;0.30;0.30;;;;;;;;;;10350393;28;20116;-27
2021/07/21 20:40:15;;;;;;;0.35;0.35;;;;;;;;;;10357230;28;20034;-27
2021/07/21 20:45:18;;;;;;;0.30;0.30;;;;;;;;;;10352787;28;20743;-27
2021/07/21 20:50:21;;;;;;;0.30;0.30;;;;;;;;;;10352050;28;20061;-26
2021/07/21 20:55:25;;;;;;;0.40;0.40;;;;;;;;;;10351743;28;20411;-26
2021/07/21 21:00:28;;;;;;;0.85;0.40;;;;;;;;;;10357219;28;20056;-26
2021/07/21 21:05:31;;;;;;;0.50;0.50;;;;;;;;;;10350256;28;20128;-27
2021/07/21 21:10:35;;;;;;;0.40;0.40;;;;;;;;;;10354373;28;20058;-26
2021/07/21 21:15:38;;;;;;;0.55;0.40;;;;;;;;;;10355553;28;20075;-26
2021/07/21 21:20:41;;;;;;;0.45;0.45;;;;;;;;;;10348606;28;20045;-26
2021/07/21 21:25:47;;;;;;;0.40;0.40;;;;;;;;;;10347679;28;20049;-26
2021/07/21 21:30:51;;;;;;;0.40;0.40;;;;;;;;;;10355660;28;20065;-26
2021/07/21 21:35:56;;;;;;;0.52;0.40;;;;;;;;;;10353511;28;20405;-26
2021/07/21 21:41:00;;;;;;;0.40;0.40;;;;;;;;;;10352524;28;20050;-26
2021/07/21 21:46:03;;;;;;;1.20;0.50;;;;;;;;;;10354229;28;20037;-26
2021/07/21 21:51:06;;;;;;;0.80;0.38;;;;;;;;;;10352922;28;20052;-27
2021/07/21 21:56:10;;;;;;;0.47;0.47;;;;;;;;;;10350353;28;20053;-26
2021/07/21 22:01:13;;;;;;;0.40;0.40;;;;;;;;;;10353906;28;20976;-26
2021/07/21 22:06:16;;;;;;;0.68;0.60;;;;;;;;;;10348133;28;20559;-27
2021/07/21 22:11:20;;;;;;;1.30;0.50;;;;;;;;;;10354689;28;20044;-26
2021/07/21 22:16:23;;;;;;;0.30;0.30;;;;;;;;;;10346156;28;20768;-27
2021/07/21 22:21:27;;;;;;;0.45;0.45;;;;;;;;;;10355455;28;20054;-26
2021/07/21 22:26:36;;;;;;;0.50;0.50;;;;;;;;;;10350940;28;20050;-26
2021/07/21 22:31:41;;;;;;;0.43;0.43;;;;;;;;;;10351672;28;20050;-26
2021/07/21 22:36:46;;;;;;;0.45;0.40;;;;;;;;;;10351138;28;20046;-26
2021/07/21 22:41:53;;;;;;;0.75;0.60;;;;;;;;;;10354775;28;20116;-26
2021/07/21 22:46:58;;;;;;;0.45;0.45;;;;;;;;;;10355343;28;20476;-26
2021/07/21 22:52:00;;;;;;;0.50;0.50;;;;;;;;;;10345157;28;20054;-26
2021/07/21 22:57:05;;;;;;;0.82;0.50;;;;;;;;;;10355398;28;20048;-27
2021/07/21 23:02:27;;;;;;;0.40;0.40;;;;;;;;;;10351055;28;20046;-26
2021/07/21 23:07:48;;;;;;;0.60;0.60;;;;;;;;;;10340608;28;20406;-27
2021/07/21 23:13:10;;;;;;;0.50;0.50;;;;;;;;;;10352170;28;20136;-26
2021/07/21 23:18:14;;;;;;;0.40;0.40;;;;;;;;;;10349664;28;20389;-26
2021/07/21 23:23:18;;;;;;;0.50;0.50;;;;;;;;;;10356957;28;20042;-27
2021/07/21 23:28:22;;;;;;;0.50;0.50;;;;;;;;;;10356090;28;20046;-26
2021/07/21 23:33:26;;;;;;;0.40;0.40;;;;;;;;;;10358628;28;20050;-26
2021/07/21 23:38:30;;;;;;;0.50;0.50;;;;;;;;;;10354881;28;20046;-27
2021/07/21 23:43:33;;;;;;;0.50;0.50;;;;;;;;;;10354047;28;20042;-26
2021/07/21 23:48:37;;;;;;;0.40;0.40;;;;;;;;;;10359937;28;20049;-27
2021/07/21 23:53:40;;;;;;;0.52;0.52;;;;;;;;;;10358065;28;20042;-26
2021/07/21 23:58:42;;;;;;;0.50;0.50;;;;;;;;;;10356859;28;20073;-28
